Time;durP1;ratioP1;P1;durP2;ratioP2;P2;SDS_P1;SDS_P2;PMS_P1;PMS_P2;Temp;Humidity;BMP_temperature;BMP_pressure;BME280_temperature;BME280_humidity;BME280_pressure;Samples;Min_cycle;Max_cycle;Signal;HPM_P1;HPM_P2
2022/06/01 00:00:50;;;;;;;21.83;20.02;;;;;;;13.26;100.00;98777.47;2065158;28;20213;-70
2022/06/01 00:01:52;;;;;;;22.25;20.35;;;;;;;13.28;100.00;98771.78;2065966;28;20596;-70
2022/06/01 00:02:53;;;;;;;23.70;21.17;;;;;;;13.29;100.00;98768.81;2065733;28;20189;-70
2022/06/01 00:03:55;;;;;;;23.33;21.13;;;;;;;13.28;100.00;98769.13;2065960;28;20648;-70
2022/06/01 00:04:57;;;;;;;21.73;19.77;;;;;;;13.28;100.00;98772.56;2065813;28;20674;-70
2022/06/01 00:06:02;;;;;;;21.55;19.75;;;;;;;13.27;100.00;98771.00;2065231;28;20236;-70
2022/06/01 00:07:05;;;;;;;22.85;20.52;;;;;;;13.26;100.00;98771.31;2065948;28;20260;-71
2022/06/01 00:08:08;;;;;;;21.88;19.92;;;;;;;13.28;100.00;98779.81;2065267;28;20267;-70
2022/06/01 00:09:09;;;;;;;22.17;20.30;;;;;;;13.23;100.00;98778.13;2065340;28;20193;-70
2022/06/01 00:10:11;;;;;;;22.17;19.97;;;;;;;13.27;100.00;98775.56;2065714;28;20189;-70
2022/06/01 00:11:12;;;;;;;22.13;20.33;;;;;;;13.26;100.00;98785.50;2065707;28;20247;-71
2022/06/01 00:12:15;;;;;;;21.27;19.57;;;;;;;13.24;100.00;98790.41;2065837;28;20231;-70
2022/06/01 00:13:16;;;;;;;21.67;19.77;;;;;;;13.29;100.00;98794.78;2065716;28;20193;-70
2022/06/01 00:14:20;;;;;;;22.85;20.73;;;;;;;13.28;100.00;98798.59;2065795;28;20183;-70
2022/06/01 00:15:22;;;;;;;21.52;19.33;;;;;;;13.27;100.00;98788.97;2065231;28;20213;-70
2022/06/01 00:16:24;;;;;;;22.30;20.38;;;;;;;13.23;100.00;98788.84;2065206;28;20189;-70
2022/06/01 00:17:25;;;;;;;22.48;20.40;;;;;;;13.27;100.00;98787.09;2065713;28;20193;-70
2022/06/01 00:18:26;;;;;;;22.03;20.10;;;;;;;13.24;100.00;98778.91;2065690;28;20189;-70
2022/06/01 00:19:28;;;;;;;20.90;19.20;;;;;;;13.19;100.00;98785.22;2065703;28;20680;-71
2022/06/01 00:20:32;;;;;;;21.60;19.75;;;;;;;13.19;100.00;98781.72;2065886;28;20188;-69
2022/06/01 00:21:33;;;;;;;22.00;20.20;;;;;;;13.18;100.00;98769.44;2064630;28;20236;-70
2022/06/01 00:22:37;;;;;;;22.45;20.40;;;;;;;13.20;100.00;98767.25;2065097;28;20230;-70
2022/06/01 00:23:40;;;;;;;22.35;20.20;;;;;;;13.22;100.00;98760.47;2065664;28;20276;-69
2022/06/01 00:24:42;;;;;;;21.92;20.15;;;;;;;13.22;100.00;98765.84;2065644;28;20565;-70
2022/06/01 00:25:44;;;;;;;22.92;20.50;;;;;;;13.20;100.00;98767.25;2065847;28;20181;-69
2022/06/01 00:26:45;;;;;;;21.63;19.75;;;;;;;13.27;100.00;98768.31;2065656;28;20197;-70
2022/06/01 00:27:47;;;;;;;21.70;19.92;;;;;;;13.28;100.00;98772.56;2065607;28;20189;-70
2022/06/01 00:28:49;;;;;;;22.52;20.25;;;;;;;13.28;100.00;98777.16;2065603;28;20560;-69
2022/06/01 00:29:51;;;;;;;21.08;19.20;;;;;;;13.29;100.00;98781.41;2065590;28;20212;-72
2022/06/01 00:30:53;;;;;;;22.55;19.90;;;;;;;13.30;100.00;98772.28;2065827;28;20309;-70
2022/06/01 00:31:54;;;;;;;21.30;19.60;;;;;;;13.31;100.00;98773.84;2065481;28;20232;-69
2022/06/01 00:32:57;;;;;;;20.73;18.67;;;;;;;13.30;100.00;98777.63;2064855;28;20678;-72
2022/06/01 00:34:00;;;;;;;22.13;20.00;;;;;;;13.31;100.00;98767.69;2066257;28;20628;-70
2022/06/01 00:35:02;;;;;;;21.25;18.92;;;;;;;13.27;100.00;98764.88;2067129;28;20617;-72
2022/06/01 00:36:06;;;;;;;21.83;19.83;;;;;;;13.26;100.00;98774.00;2066786;28;20208;-70
2022/06/01 00:37:08;;;;;;;21.25;19.55;;;;;;;13.23;100.00;98769.31;2067080;28;20180;-72
2022/06/01 00:38:10;;;;;;;21.70;19.70;;;;;;;13.23;100.00;98780.81;2067023;28;20217;-70
2022/06/01 00:39:12;;;;;;;21.90;19.85;;;;;;;13.27;100.00;98775.56;2067253;28;20710;-70
2022/06/01 00:40:16;;;;;;;22.75;20.38;;;;;;;13.27;100.00;98780.94;2066330;28;20228;-73
2022/06/01 00:41:18;;;;;;;21.92;19.95;;;;;;;13.27;100.00;98775.56;2066584;28;20220;-72
2022/06/01 00:42:24;;;;;;;22.08;19.92;;;;;;;13.26;100.00;98779.38;2067011;28;20188;-71
2022/06/01 00:43:39;;;;;;;22.45;20.35;;;;;;;13.28;100.00;98775.25;2066333;28;20216;-72
2022/06/01 00:44:40;;;;;;;22.35;20.50;;;;;;;13.29;100.00;98773.34;2066817;28;20183;-71
2022/06/01 00:45:42;;;;;;;22.37;20.20;;;;;;;13.27;100.00;98780.94;2067133;28;20275;-71
2022/06/01 00:46:44;;;;;;;21.15;19.38;;;;;;;13.25;100.00;98781.25;2066265;28;20200;-72
2022/06/01 00:47:48;;;;;;;22.17;20.33;;;;;;;13.27;100.00;98775.56;2066378;28;20188;-72
2022/06/01 00:48:52;;;;;;;22.90;20.95;;;;;;;13.23;100.00;98772.75;2066920;28;20193;-72
2022/06/01 00:49:59;;;;;;;27.67;20.92;;;;;;;13.27;100.00;98783.63;2066979;28;20671;-71
2022/06/01 00:51:00;;;;;;;23.25;20.88;;;;;;;13.29;100.00;98782.22;2066499;28;20588;-72
2022/06/01 00:52:02;;;;;;;22.07;19.93;;;;;;;13.27;100.00;98783.63;2066557;28;20223;-70
2022/06/01 00:53:07;;;;;;;22.42;20.30;;;;;;;13.26;100.00;98782.06;2066480;28;20545;-72
2022/06/01 00:54:10;;;;;;;22.98;20.75;;;;;;;13.23;100.00;98774.66;2066830;28;20259;-72
2022/06/01 00:55:18;;;;;;;22.38;20.33;;;;;;;13.18;100.00;98775.56;2067133;28;20189;-72
2022/06/01 00:56:26;;;;;;;22.67;20.63;;;;;;;13.17;100.00;98773.22;2066290;28;20193;-72
2022/06/01 00:57:27;;;;;;;22.50;20.48;;;;;;;13.20;100.00;98788.69;2066641;28;20305;-72
2022/06/01 00:58:31;;;;;;;22.20;20.00;;;;;;;13.19;100.00;98776.34;2066338;28;20801;-71
2022/06/01 00:59:34;;;;;;;22.00;20.10;;;;;;;13.20;100.00;98772.59;2066902;28;20197;-71
2022/06/01 01:00:38;;;;;;;22.27;20.15;;;;;;;13.19;100.00;98776.34;2066969;28;20189;-72
2022/06/01 01:01:39;;;;;;;22.85;19.85;;;;;;;13.18;100.00;98777.47;2066885;28;20197;-72
2022/06/01 01:02:41;;;;;;;22.27;20.25;;;;;;;13.16;100.00;98779.69;2067070;28;20189;-71
2022/06/01 01:03:45;;;;;;;21.33;19.25;;;;;;;13.14;100.00;98779.22;2066826;28;20196;-72
2022/06/01 01:04:47;;;;;;;21.40;19.30;;;;;;;13.17;100.00;98773.22;2066871;28;20189;-71
2022/06/01 01:05:53;;;;;;;21.75;20.00;;;;;;;13.16;100.00;98779.69;2066843;28;20663;-72
2022/06/01 01:06:54;;;;;;;21.95;19.88;;;;;;;13.14;100.00;98776.56;2066717;28;20570;-72
2022/06/01 01:08:00;;;;;;;21.23;19.20;;;;;;;13.10;100.00;98778.28;2066854;28;20655;-71
2022/06/01 01:09:02;;;;;;;21.52;19.60;;;;;;;13.08;100.00;98780.50;2066951;28;20204;-72
2022/06/01 01:10:05;;;;;;;21.52;19.73;;;;;;;13.06;100.00;98782.72;2066951;28;20707;-72
2022/06/01 01:11:10;;;;;;;22.27;19.65;;;;;;;13.02;100.00;98777.19;2066976;28;20196;-72
2022/06/01 01:12:12;;;;;;;23.20;21.00;;;;;;;13.01;100.00;98784.44;2066773;28;20663;-71
2022/06/01 01:13:14;;;;;;;22.17;20.27;;;;;;;12.98;100.00;98787.75;2066878;28;20270;-71
2022/06/01 01:14:19;;;;;;;22.90;20.85;;;;;;;12.97;100.00;98780.84;2066051;28;20259;-72
2022/06/01 01:15:23;;;;;;;22.58;20.63;;;;;;;12.91;100.00;98778.63;2066490;28;20200;-71
2022/06/01 01:16:27;;;;;;;23.02;20.58;;;;;;;12.89;100.00;98789.66;2066768;28;20240;-72
2022/06/01 01:17:28;;;;;;;22.52;20.38;;;;;;;12.87;100.00;98785.75;2066779;28;20271;-72
2022/06/01 01:18:32;;;;;;;22.42;20.30;;;;;;;12.84;100.00;98789.03;2066777;28;20240;-72
2022/06/01 01:19:35;;;;;;;22.25;20.05;;;;;;;12.85;100.00;98783.34;2066742;28;20197;-72
2022/06/01 01:20:44;;;;;;;20.83;19.13;;;;;;;12.81;100.00;98782.44;2066825;28;20189;-71
2022/06/01 01:21:51;;;;;;;22.05;20.08;;;;;;;12.79;100.00;98783.88;2066451;28;20316;-72
2022/06/01 01:23:05;;;;;;;21.60;19.60;;;;;;;12.75;100.00;98778.34;2066828;28;20208;-72
2022/06/01 01:24:15;;;;;;;22.70;20.55;;;;;;;12.72;100.00;98774.41;2066730;28;20165;-71
2022/06/01 01:25:22;;;;;;;22.35;20.35;;;;;;;12.72;100.00;98778.97;2066844;28;20545;-72
2022/06/01 01:26:23;;;;;;;21.52;19.60;;;;;;;12.72;100.00;98774.41;2066039;28;20204;-72
2022/06/01 01:27:25;;;;;;;22.48;20.40;;;;;;;12.71;100.00;98778.19;2058011;28;20206;-72
2022/06/01 01:28:26;;;;;;;21.42;19.27;;;;;;;12.73;100.00;98781.34;2066070;28;20240;-71
2022/06/01 01:29:35;;;;;;;21.97;20.10;;;;;;;12.73;100.00;98777.88;2065904;28;20231;-72
2022/06/01 01:30:53;;;;;;;21.33;19.27;;;;;;;12.74;100.00;98784.81;2066282;28;20299;-71
2022/06/01 01:31:56;;;;;;;22.33;20.20;;;;;;;12.75;100.00;98775.66;2066496;28;20233;-72
2022/06/01 01:32:57;;;;;;;21.40;19.58;;;;;;;12.78;100.00;98782.28;2066632;28;20201;-72
2022/06/01 01:33:59;;;;;;;22.70;20.60;;;;;;;12.80;100.00;98778.19;2066610;28;20292;-72
2022/06/01 01:34:59;;;;;;;22.33;20.15;;;;;;;12.84;100.00;98778.31;2066858;28;20193;-72
2022/06/01 01:36:06;;;;;;;22.00;20.13;;;;;;;12.86;100.00;98782.28;2065686;28;20243;-71
2022/06/01 01:37:11;;;;;;;22.33;20.30;;;;;;;12.85;100.00;98780.69;2066329;28;20538;-72
2022/06/01 01:38:21;;;;;;;22.05;19.80;;;;;;;12.82;100.00;98778.66;2066609;28;20186;-72
2022/06/01 01:39:22;;;;;;;22.75;20.42;;;;;;;12.83;100.00;98785.56;2066729;28;20174;-72
2022/06/01 01:40:25;;;;;;;22.47;20.13;;;;;;;12.81;100.00;98770.94;2066317;28;20197;-71
2022/06/01 01:41:30;;;;;;;22.27;19.95;;;;;;;12.79;100.00;98770.47;2066016;28;20197;-71
2022/06/01 01:42:30;;;;;;;21.25;19.13;;;;;;;12.80;100.00;98761.34;2066586;28;20185;-72
2022/06/01 01:43:35;;;;;;;22.47;20.47;;;;;;;12.87;100.00;98762.44;2066775;28;20207;-71
2022/06/01 01:44:41;;;;;;;22.33;20.08;;;;;;;12.86;100.00;98758.19;2066212;28;20258;-72
2022/06/01 01:45:42;;;;;;;21.17;19.27;;;;;;;12.87;100.00;98765.09;2065452;28;20699;-72
2022/06/01 01:46:47;;;;;;;22.20;20.17;;;;;;;12.85;100.00;98766.50;2066103;28;20577;-71
2022/06/01 01:47:47;;;;;;;23.35;21.10;;;;;;;12.85;100.00;98769.97;2066533;28;20604;-72
2022/06/01 01:48:50;;;;;;;22.27;19.97;;;;;;;12.86;100.00;98762.75;2066642;28;20215;-71
2022/06/01 01:49:51;;;;;;;21.80;19.60;;;;;;;12.90;100.00;98766.34;2066598;28;20246;-72
2022/06/01 01:50:54;;;;;;;21.60;19.70;;;;;;;12.91;100.00;98771.38;2065337;28;20252;-72
2022/06/01 01:52:00;;;;;;;22.33;20.38;;;;;;;12.94;100.00;98767.28;2065935;28;20825;-71
2022/06/01 01:53:01;;;;;;;22.00;19.80;;;;;;;12.90;100.00;98767.13;2066730;28;20272;-72
2022/06/01 01:54:07;;;;;;;21.55;19.48;;;;;;;12.94;100.00;98768.09;2066435;28;20192;-72
2022/06/01 01:55:15;;;;;;;21.67;19.77;;;;;;;12.98;100.00;98765.56;2066482;28;20181;-72
2022/06/01 01:56:35;;;;;;;22.55;20.65;;;;;;;12.96;100.00;98763.19;2066631;28;20640;-72
2022/06/01 01:57:48;;;;;;;22.13;20.27;;;;;;;12.97;100.00;98754.06;2066688;28;20188;-71
2022/06/01 01:59:05;;;;;;;21.85;19.75;;;;;;;13.01;100.00;98767.59;2066486;28;20264;-72
2022/06/01 02:00:14;;;;;;;23.15;21.13;;;;;;;12.98;100.00;98750.28;2066566;28;20177;-72
2022/06/01 02:01:19;;;;;;;22.27;20.27;;;;;;;13.01;100.00;98764.91;2065741;28;20312;-72
2022/06/01 02:02:23;;;;;;;22.77;20.58;;;;;;;13.04;100.00;98758.94;2065946;28;20244;-71
2022/06/01 02:03:30;;;;;;;22.90;20.73;;;;;;;13.06;100.00;98770.09;2066426;28;20522;-72
2022/06/01 02:06:05;;;;;;;23.45;21.08;;;;;;;13.09;100.00;98772.13;2065959;28;20174;-72
2022/06/01 02:07:11;;;;;;;23.55;21.10;;;;;;;13.07;100.00;98763.63;2066407;28;20549;-72
2022/06/01 02:08:19;;;;;;;23.17;20.13;;;;;;;13.08;100.00;98765.22;2066023;28;20193;-71
2022/06/01 02:09:20;;;;;;;20.98;19.17;;;;;;;13.06;100.00;98756.72;2058565;28;20575;-72
2022/06/01 02:13:07;;;;;;;21.30;19.50;;;;;;;13.05;100.00;98765.84;2066091;28;20659;-72
2022/06/01 02:14:13;;;;;;;21.33;19.35;;;;;;;13.04;100.00;98764.28;2065492;28;20219;-71
2022/06/01 02:15:19;;;;;;;21.98;19.65;;;;;;;13.04;100.00;98763.50;2065657;28;20203;-71
2022/06/01 02:16:21;;;;;;;21.77;19.75;;;;;;;13.02;100.00;98761.13;2066002;28;20170;-71
2022/06/01 02:17:24;;;;;;;20.60;18.80;;;;;;;13.01;100.00;98771.03;2065679;28;20189;-71
2022/06/01 02:18:31;;;;;;;21.52;19.63;;;;;;;12.98;100.00;98777.06;2065829;28;20275;-71
2022/06/01 02:19:36;;;;;;;21.42;19.45;;;;;;;12.95;100.00;98772.34;2066452;28;20631;-71
2022/06/01 02:20:41;;;;;;;22.33;18.80;;;;;;;12.92;100.00;98772.16;2066333;28;20220;-71
2022/06/01 02:21:43;;;;;;;21.63;19.63;;;;;;;12.89;100.00;98773.59;2065988;28;20699;-71
2022/06/01 02:22:44;;;;;;;22.08;20.00;;;;;;;12.86;100.00;98773.47;2066490;28;20209;-72
2022/06/01 02:23:47;;;;;;;20.52;18.65;;;;;;;12.82;100.00;98775.97;2066452;28;20247;-71
2022/06/01 02:24:51;;;;;;;22.70;19.80;;;;;;;12.81;100.00;98771.72;2066247;28;20546;-71
2022/06/01 02:25:53;;;;;;;21.50;19.40;;;;;;;12.76;100.00;98763.84;2066334;28;20200;-71
2022/06/01 02:26:58;;;;;;;22.00;19.70;;;;;;;12.73;100.00;98769.84;2066225;28;20660;-71
2022/06/01 02:28:00;;;;;;;23.55;19.60;;;;;;;12.72;100.00;98768.28;2066332;28;20170;-71
2022/06/01 02:29:08;;;;;;;21.63;19.05;;;;;;;12.71;100.00;98767.50;2066404;28;20213;-71
2022/06/01 02:30:12;;;;;;;21.75;19.73;;;;;;;12.71;100.00;98769.38;2066154;28;20687;-71
2022/06/01 02:31:16;;;;;;;20.90;19.10;;;;;;;12.71;100.00;98764.03;2065301;28;20196;-72
2022/06/01 02:32:18;;;;;;;20.60;18.50;;;;;;;12.74;100.00;98766.84;2065541;28;20204;-71
2022/06/01 02:33:24;;;;;;;20.70;18.98;;;;;;;12.75;100.00;98772.97;2065656;28;20181;-71
2022/06/01 02:34:27;;;;;;;21.00;19.00;;;;;;;12.75;100.00;98770.31;2066269;28;20260;-71
2022/06/01 02:35:41;;;;;;;20.92;18.95;;;;;;;12.76;100.00;98766.53;2066165;28;20189;-71
2022/06/01 02:36:43;;;;;;;20.90;18.90;;;;;;;12.81;100.00;98766.38;2065897;28;20216;-71
2022/06/01 02:37:47;;;;;;;26.40;19.83;;;;;;;12.84;100.00;98771.06;2066355;28;20535;-71
2022/06/01 02:38:50;;;;;;;21.63;19.73;;;;;;;12.85;100.00;98774.53;2066146;28;20193;-71
2022/06/01 02:39:55;;;;;;;20.58;18.70;;;;;;;12.83;100.00;98768.72;2066125;28;20656;-71
2022/06/01 02:40:58;;;;;;;20.88;18.98;;;;;;;12.85;100.00;98775.31;2066231;28;20166;-71
2022/06/01 02:42:26;;;;;;;20.35;18.55;;;;;;;12.86;100.00;98776.16;2066295;28;20193;-72
2022/06/01 02:43:28;;;;;;;20.75;18.83;;;;;;;12.87;100.00;98775.81;2066274;28;20177;-71
2022/06/01 02:44:29;;;;;;;22.77;19.60;;;;;;;12.86;100.00;98776.94;2066019;28;20275;-70
2022/06/01 02:45:31;;;;;;;22.83;20.30;;;;;;;12.87;100.00;98773.16;2066308;28;20193;-71
2022/06/01 02:46:34;;;;;;;21.02;19.10;;;;;;;12.86;100.00;98768.09;2066286;28;20196;-71
2022/06/01 02:47:38;;;;;;;20.80;18.90;;;;;;;12.87;100.00;98781.19;2066317;28;20591;-71
2022/06/01 02:48:43;;;;;;;21.45;19.23;;;;;;;12.86;100.00;98774.25;2066078;28;20189;-71
2022/06/01 02:49:46;;;;;;;21.60;19.30;;;;;;;12.86;100.00;98776.16;2066308;28;20178;-71
2022/06/01 02:50:48;;;;;;;20.90;19.17;;;;;;;12.86;100.00;98784.97;2065357;28;20561;-71
2022/06/01 02:51:49;;;;;;;21.70;19.80;;;;;;;12.86;100.00;98784.97;2064978;28;20225;-71
2022/06/01 02:52:51;;;;;;;22.50;19.90;;;;;;;12.85;100.00;98788.72;2066257;28;20272;-71
2022/06/01 02:53:52;;;;;;;22.92;19.98;;;;;;;12.86;100.00;98795.66;2066045;28;20196;-71
2022/06/01 02:54:54;;;;;;;22.13;20.00;;;;;;;12.90;100.00;98806.53;2066156;28;20217;-71
2022/06/01 02:55:57;;;;;;;22.23;20.35;;;;;;;12.88;100.00;98814.88;2066206;28;20204;-71
2022/06/01 02:56:59;;;;;;;22.70;20.70;;;;;;;12.86;100.00;98802.91;2066144;28;20675;-71
2022/06/01 02:58:03;;;;;;;22.02;20.20;;;;;;;12.82;100.00;98805.44;2065325;28;20197;-71
2022/06/01 02:59:05;;;;;;;22.00;19.98;;;;;;;12.81;100.00;98809.22;2057534;28;20256;-71
2022/06/01 03:00:10;;;;;;;24.90;20.67;;;;;;;12.79;100.00;98802.59;2065388;28;20652;-71
2022/06/01 03:01:13;;;;;;;21.13;19.20;;;;;;;12.89;100.00;98815.66;2065974;28;20652;-71
2022/06/01 03:02:15;;;;;;;21.50;19.60;;;;;;;12.93;100.00;98811.22;2066000;28;20193;-71
2022/06/01 03:03:21;;;;;;;22.00;19.70;;;;;;;12.91;100.00;98806.19;2066205;28;20189;-71
2022/06/01 03:04:21;;;;;;;21.60;19.77;;;;;;;12.92;100.00;98805.09;2066275;28;20170;-71
2022/06/01 03:05:25;;;;;;;21.73;19.77;;;;;;;12.91;100.00;98808.09;2065253;28;20224;-71
2022/06/01 03:06:26;;;;;;;21.45;19.70;;;;;;;12.92;100.00;98810.44;2065134;28;20311;-71
2022/06/01 03:07:30;;;;;;;21.27;19.27;;;;;;;12.95;100.00;98806.38;2065224;28;20299;-71
2022/06/01 03:08:32;;;;;;;22.17;20.10;;;;;;;12.92;100.00;98815.00;2065354;28;20189;-71
2022/06/01 03:09:34;;;;;;;22.55;20.35;;;;;;;12.88;100.00;98809.53;2065919;28;20185;-71
2022/06/01 03:10:35;;;;;;;22.85;20.75;;;;;;;12.86;100.00;98810.94;2065978;28;20658;-71
2022/06/01 03:11:37;;;;;;;22.97;20.47;;;;;;;12.88;100.00;98816.78;2066158;28;20544;-71
2022/06/01 03:12:38;;;;;;;21.92;19.92;;;;;;;12.88;100.00;98814.09;2065920;28;20204;-71
2022/06/01 03:13:41;;;;;;;23.63;21.33;;;;;;;12.86;100.00;98817.09;2065232;28;20296;-71
2022/06/01 03:14:42;;;;;;;22.92;20.75;;;;;;;12.85;100.00;98814.72;2065510;28;20199;-71
2022/06/01 03:15:44;;;;;;;22.03;20.03;;;;;;;12.85;100.00;98815.50;2065923;28;20722;-71
2022/06/01 03:16:47;;;;;;;22.48;20.48;;;;;;;12.84;100.00;98821.94;2065926;28;20189;-71
2022/06/01 03:17:54;;;;;;;23.73;21.20;;;;;;;12.81;100.00;98819.91;2066086;28;20203;-71
2022/06/01 03:18:54;;;;;;;23.25;21.20;;;;;;;12.83;100.00;98823.06;2065938;28;20720;-70
2022/06/01 03:19:56;;;;;;;23.40;21.10;;;;;;;12.82;100.00;98826.84;2065909;28;20598;-70
2022/06/01 03:20:59;;;;;;;23.48;21.25;;;;;;;12.81;100.00;98833.31;2065337;28;20254;-70
2022/06/01 03:22:01;;;;;;;23.42;21.27;;;;;;;12.82;100.00;98832.19;2065526;28;20695;-70
2022/06/01 03:23:03;;;;;;;22.63;20.52;;;;;;;12.81;100.00;98830.63;2065220;28;20644;-70
2022/06/01 03:24:05;;;;;;;22.08;20.00;;;;;;;12.83;100.00;98832.97;2065929;28;20193;-70
2022/06/01 03:25:09;;;;;;;23.50;21.05;;;;;;;12.83;100.00;98832.97;2066095;28;20173;-70
2022/06/01 03:26:12;;;;;;;23.13;20.95;;;;;;;12.81;100.00;98835.97;2065962;28;20197;-71
2022/06/01 03:27:13;;;;;;;22.77;20.50;;;;;;;12.78;100.00;98836.63;2065174;28;20586;-70
2022/06/01 03:28:15;;;;;;;22.50;20.47;;;;;;;12.81;100.00;98841.34;2065479;28;20268;-70
2022/06/01 03:29:20;;;;;;;24.77;21.80;;;;;;;12.79;100.00;98838.19;2065885;28;20184;-70
2022/06/01 03:30:23;;;;;;;23.30;21.30;;;;;;;12.80;100.00;98839.75;2065897;28;20216;-70
2022/06/01 03:31:25;;;;;;;23.33;21.00;;;;;;;12.78;100.00;98847.31;2064981;28;20244;-70
2022/06/01 03:32:27;;;;;;;23.40;20.70;;;;;;;12.80;100.00;98849.69;2065189;28;20571;-70
2022/06/01 03:33:27;;;;;;;24.80;22.30;;;;;;;12.74;100.00;98851.72;2066043;28;20185;-71
2022/06/01 03:34:30;;;;;;;25.50;22.53;;;;;;;12.76;100.00;98862.91;2065944;28;20193;-70
2022/06/01 03:35:34;;;;;;;23.75;21.50;;;;;;;12.70;100.00;98859.59;2065790;28;20683;-70
2022/06/01 03:36:36;;;;;;;23.83;21.63;;;;;;;12.68;100.00;98858.31;2064949;28;20641;-70
2022/06/01 03:37:37;;;;;;;23.95;21.80;;;;;;;12.72;100.00;98867.31;2057153;28;20306;-70
2022/06/01 03:38:40;;;;;;;24.17;21.97;;;;;;;12.73;100.00;98866.22;2065242;28;20193;-70
2022/06/01 03:39:41;;;;;;;24.73;22.30;;;;;;;12.73;100.00;98866.22;2065910;28;20523;-70
2022/06/01 03:40:43;;;;;;;25.23;22.70;;;;;;;12.72;100.00;98870.00;2065868;28;20197;-70
2022/06/01 03:41:45;;;;;;;24.58;22.15;;;;;;;12.74;100.00;98870.47;2066006;28;20242;-70
2022/06/01 03:42:47;;;;;;;25.25;22.65;;;;;;;12.66;100.00;98872.03;2065864;28;20694;-70
2022/06/01 03:46:32;;;;;;;23.85;21.75;;;;;;;12.66;100.00;98861.31;2065204;28;20185;-70
2022/06/01 03:47:33;;;;;;;25.45;22.92;;;;;;;12.72;100.00;98856.63;2065344;28;20193;-70
2022/06/01 03:48:35;;;;;;;24.80;22.40;;;;;;;12.72;100.00;98867.31;2065844;28;20726;-70
2022/06/01 03:49:37;;;;;;;26.05;23.25;;;;;;;12.69;100.00;98871.41;2065880;28;20546;-70
2022/06/01 03:50:39;;;;;;;25.42;22.75;;;;;;;12.67;100.00;98857.53;2065116;28;20203;-70
2022/06/01 03:51:40;;;;;;;24.80;22.42;;;;;;;12.70;100.00;98869.53;2064861;28;20220;-70
2022/06/01 03:52:45;;;;;;;24.57;22.13;;;;;;;12.70;100.00;98870.31;2065747;28;20193;-70
2022/06/01 03:53:47;;;;;;;24.98;22.38;;;;;;;12.73;100.00;98871.56;2065775;28;20448;-70
2022/06/01 03:54:47;;;;;;;26.55;22.67;;;;;;;12.77;100.00;98872.53;2065223;28;20205;-70
2022/06/01 03:55:49;;;;;;;23.77;21.70;;;;;;;12.80;100.00;98871.09;2065165;28;20195;-70
2022/06/01 03:56:51;;;;;;;23.38;21.33;;;;;;;12.86;100.00;98875.22;2065873;28;20255;-70
2022/06/01 03:57:53;;;;;;;23.98;21.55;;;;;;;12.84;100.00;98872.03;2065776;28;20189;-70
2022/06/01 03:58:54;;;;;;;23.67;21.38;;;;;;;12.81;100.00;98865.44;2065739;28;20198;-70
2022/06/01 03:59:57;;;;;;;23.40;21.00;;;;;;;12.85;100.00;98878.97;2065686;28;20229;-71
2022/06/01 04:00:59;;;;;;;23.33;21.27;;;;;;;12.85;100.00;98873.59;2065712;28;20273;-71
2022/06/01 04:02:02;;;;;;;25.13;22.42;;;;;;;12.85;100.00;98879.75;2065766;28;20189;-71
2022/06/01 04:03:05;;;;;;;24.17;21.75;;;;;;;12.89;100.00;98878.03;2065955;28;20276;-70
2022/06/01 04:04:08;;;;;;;23.20;21.10;;;;;;;12.95;100.00;98884.03;2065736;28;20240;-71
2022/06/01 04:05:09;;;;;;;23.35;21.27;;;;;;;12.97;100.00;98879.94;2065731;28;20193;-70
2022/06/01 04:06:13;;;;;;;24.00;21.67;;;;;;;12.98;100.00;98884.16;2065241;28;20189;-70
2022/06/01 04:07:15;;;;;;;24.27;21.65;;;;;;;13.01;100.00;98882.75;2065810;28;20683;-70
2022/06/01 04:08:17;;;;;;;24.13;21.87;;;;;;;13.05;100.00;98889.06;2065330;28;20657;-70
2022/06/01 04:09:17;;;;;;;24.05;21.70;;;;;;;13.08;100.00;98893.78;2066564;28;20467;-70
2022/06/01 04:10:21;;;;;;;24.40;21.80;;;;;;;13.12;100.00;98884.03;2066653;28;20688;-70
2022/06/01 04:11:22;;;;;;;24.23;21.80;;;;;;;13.15;100.00;98886.06;2066607;28;20217;-70
2022/06/01 04:12:25;;;;;;;24.87;22.50;;;;;;;13.19;100.00;98878.16;2066773;28;20192;-70
2022/06/01 04:13:28;;;;;;;24.35;21.90;;;;;;;13.22;100.00;98866.84;2067250;28;20539;-70
2022/06/01 04:14:29;;;;;;;24.42;22.13;;;;;;;13.25;100.00;98867.00;2066575;28;20595;-70
2022/06/01 04:15:31;;;;;;;23.97;21.77;;;;;;;13.26;100.00;98870.47;2066584;28;20295;-70
2022/06/01 04:16:33;;;;;;;23.98;21.70;;;;;;;13.30;100.00;98868.75;2066545;28;20224;-70
2022/06/01 04:17:35;;;;;;;25.15;21.95;;;;;;;13.34;100.00;98866.97;2066461;28;20272;-70
2022/06/01 04:18:35;;;;;;;26.15;22.00;;;;;;;13.37;100.00;98874.38;2066851;28;20299;-70
2022/06/01 04:19:37;;;;;;;24.13;21.77;;;;;;;13.35;100.00;98884.63;2067250;28;20544;-71
2022/06/01 04:20:39;;;;;;;24.85;22.17;;;;;;;13.36;100.00;98883.53;2067208;28;20652;-70
2022/06/01 04:21:42;;;;;;;24.92;22.48;;;;;;;13.38;100.00;98888.56;2066902;28;20221;-70
2022/06/01 04:22:43;;;;;;;24.70;22.50;;;;;;;13.40;100.00;98887.16;2067145;28;20197;-70
2022/06/01 04:23:45;;;;;;;23.88;21.05;;;;;;;13.43;100.00;98888.41;2067160;28;20256;-70
2022/06/01 04:24:49;;;;;;;24.25;21.77;;;;;;;13.49;100.00;98877.19;2066478;28;20212;-70
2022/06/01 04:25:51;;;;;;;24.80;22.25;;;;;;;13.55;100.00;98873.25;2066674;28;20197;-71
2022/06/01 04:26:52;;;;;;;24.85;22.45;;;;;;;13.58;100.00;98877.97;2067369;28;20193;-71
2022/06/01 04:27:54;;;;;;;24.83;22.30;;;;;;;13.63;100.00;98873.53;2067160;28;20279;-70
2022/06/01 04:28:54;;;;;;;25.30;22.73;;;;;;;13.69;100.00;98874.94;2067345;28;20602;-70
2022/06/01 04:29:56;;;;;;;25.87;23.27;;;;;;;13.68;100.00;98874.16;2067087;28;20295;-70
2022/06/01 04:30:58;;;;;;;26.48;22.60;;;;;;;13.74;100.00;98872.09;2067151;28;20193;-70
2022/06/01 04:32:04;;;;;;;25.27;22.65;;;;;;;13.76;100.00;98869.88;2066207;28;20229;-71
2022/06/01 04:33:07;;;;;;;27.77;23.80;;;;;;;13.84;100.00;98869.03;2066674;28;20172;-70
2022/06/01 04:34:07;;;;;;;25.02;22.50;;;;;;;13.90;100.00;98867.78;2067217;28;20196;-70
2022/06/01 04:35:13;;;;;;;26.23;23.10;;;;;;;13.85;100.00;98867.94;2066298;28;20300;-70
2022/06/01 04:36:14;;;;;;;25.45;22.98;;;;;;;13.80;100.00;98870.78;2066046;28;20275;-70
2022/06/01 04:37:16;;;;;;;26.52;23.92;;;;;;;13.79;100.00;98872.69;2066345;28;20378;-70
2022/06/01 04:38:18;;;;;;;26.02;23.48;;;;;;;13.80;100.00;98866.19;2058367;28;20198;-70
2022/06/01 04:39:19;;;;;;;27.67;23.08;;;;;;;13.82;100.00;98871.28;2058457;28;20281;-71
2022/06/01 04:40:23;;;;;;;26.40;23.67;;;;;;;13.82;100.00;98879.31;2066421;28;20196;-70
2022/06/01 04:41:25;;;;;;;27.58;24.30;;;;;;;13.85;100.00;98875.97;2067188;28;20199;-70
2022/06/01 04:42:27;;;;;;;26.27;23.83;;;;;;;13.87;100.00;98879.13;2067266;28;20199;-71
2022/06/01 04:43:27;;;;;;;26.75;23.83;;;;;;;13.91;100.00;98888.13;2067014;28;20189;-70
2022/06/01 04:44:29;;;;;;;26.80;23.73;;;;;;;13.93;100.00;98885.88;2067020;28;20643;-71
2022/06/01 04:45:31;;;;;;;26.70;23.75;;;;;;;13.92;100.00;98892.38;2066993;28;20193;-70
2022/06/01 04:46:32;;;;;;;26.83;24.25;;;;;;;13.95;100.00;98896.28;2067090;28;20755;-70
2022/06/01 04:47:35;;;;;;;26.10;23.30;;;;;;;13.99;100.00;98905.28;2066976;28;20188;-70
2022/06/01 04:48:37;;;;;;;26.17;23.35;;;;;;;14.04;100.00;98897.03;2066999;28;20651;-70
2022/06/01 04:49:39;;;;;;;31.05;23.52;;;;;;;14.07;100.00;98902.56;2067060;28;20262;-71
2022/06/01 04:50:42;;;;;;;24.98;22.48;;;;;;;14.12;100.00;98902.38;2066663;28;20745;-71
2022/06/01 04:51:44;;;;;;;25.40;22.75;;;;;;;14.16;100.00;98910.56;2066087;28;20221;-70
2022/06/01 04:52:46;;;;;;;25.75;23.38;;;;;;;14.21;100.00;98906.91;2067070;28;20529;-70
2022/06/01 04:53:47;;;;;;;27.00;23.92;;;;;;;14.25;100.00;98903.25;2066963;28;20189;-70
2022/06/01 04:54:49;;;;;;;26.60;24.05;;;;;;;14.33;100.00;98898.94;2066939;28;20196;-71